Terminal Aerodrome Forecast
Issued by NWS

Home | Current Version | Previous Version | Text Only | Print | Product List | Glossary On
Versions: 1 2 3 4 5 6 7 8 9 10 11 12 13 14 15 16 17 18 19 20 21 22 23 24 25 26 27 28 29 30 31 32 33 34 35 36 37
000
FTUS43 KMKX 031422 AAA
TAFUES
TAF AMD
KUES 031422Z 0314/0412 19010KT P6SM BKN090
     FM031600 21012G18KT P6SM BKN070
     FM031800 21013G21KT P6SM SCT080
     FM040100 21010KT P6SM BKN100
     FM040600 22009KT 6SM -TSRA OVC045CB
     FM041100 23007KT 4SM -SHRA BKN035=

USA.gov is the U.S. government's official web portal to all federal, state and local government web resources and services.